This is the latest recevied weather packets stored in our database for station/object N2ZVN. If no packets are shown the sender has not sent any weather packets the latest 10 day(s).
| Time | Temp. | Humidity | Pressure | Rain* | Wind** | Luminosity | Snow |
|---|---|---|---|---|---|---|---|
| 1777446788 | 11.11° C | 86% | 1013.1 hPa | 0 mm | - | 0 W/m² | - |
| 1777446483 | 11.11° C | 86% | 1013.2 hPa | 0 mm | - | 0 W/m² | - |
| 1777446179 | 11.11° C | 86% | 1013 hPa | 0 mm | - | 0 W/m² | - |
| 1777445876 | 11.11° C | 86% | 1013.2 hPa | 0 mm | - | 0 W/m² | - |
| 1777445572 | 10.56° C | 87% | 1013.2 hPa | 0 mm | - | 0 W/m² | - |
| 1777445270 | 10.56° C | 86% | 1013.3 hPa | 0 mm | - | 0 W/m² | - |
| 1777444965 | 10.56° C | 86% | 1013.2 hPa | 0 mm | - | 0 W/m² | - |
| 1777444660 | 10.56° C | 86% | 1013.3 hPa | 0 mm | - | 0 W/m² | - |
| 1777444358 | 10.56° C | 86% | 1013.3 hPa | 0 mm | - | 0 W/m² | - |
| 1777444055 | 10.56° C | 87% | 1013.2 hPa | 0 mm | - | 0 W/m² | - |
| 1777443750 | 10.56° C | 86% | 1013 hPa | 0 mm | - | 0 W/m² | - |
| 1777443445 | 10.56° C | 86% | 1013.1 hPa | 0 mm | - | 0 W/m² | - |
| 1777443143 | 10.56° C | 86% | 1013.1 hPa | 0 mm | - | 0 W/m² | - |
| 1777442840 | 10.56° C | 86% | 1013.2 hPa | 0 mm | - | 0 W/m² | - |
| 1777442536 | 10.56° C | 85% | 1013.4 hPa | 0 mm | - | 0 W/m² | - |
| 1777442231 | 10.56° C | 85% | 1013.3 hPa | 0 mm | - | 0 W/m² | - |
| 1777441927 | 10.56° C | 85% | 1013.7 hPa | 0 mm | - | 0 W/m² | - |
| 1777441623 | 10.56° C | 85% | 1013.5 hPa | 0 mm | - | 0 W/m² | - |
| 1777441319 | 11.11° C | 84% | 1013.5 hPa | 0 mm | - | 0 W/m² | - |
| 1777441014 | 11.11° C | 84% | 1013.4 hPa | 0 mm | - | 0 W/m² | - |
| 1777440710 | 11.11° C | 83% | 1013.4 hPa | 0 mm | - | 0 W/m² | - |
| 1777440405 | 12.22° C | 80% | 1013.4 hPa | 0 mm | - | 0 W/m² | - |
| 1777440102 | 13.33° C | 78% | 1013.4 hPa | 0 mm | - | 0 W/m² | - |
| 1777439797 | 13.89° C | 80% | 1013.2 hPa | 0 mm | - | 0 W/m² | - |
| 1777439494 | 13.89° C | 80% | 1013.4 hPa | 0 mm | - | 0 W/m² | - |
* Rain latest hour (hover to see other rain measurements)
** Current wind speed in m/s (hover to see current wind gust speed)